地図

経路データ

SID SEASON NUMBER BASIN SUBBASIN NAME ISO_TIME NATURE LAT LON WMO_WIND WMO_PRES WMO_AGENCY TRACK_TYPE DIST2LAND LANDFALL IFLAG USA_AGENCY USA_ATCF_ID USA_LAT USA_LON USA_RECORD USA_STATUS USA_WIND USA_PRES USA_SSHS USA_R34_NE USA_R34_SE USA_R34_SW USA_R34_NW USA_R50_NE USA_R50_SE USA_R50_SW USA_R50_NW USA_R64_NE USA_R64_SE USA_R64_SW USA_R64_NW USA_POCI USA_ROCI USA_RMW USA_EYE TOKYO_LAT TOKYO_LON TOKYO_GRADE TOKYO_WIND TOKYO_PRES TOKYO_R50_DIR TOKYO_R50_LONG TOKYO_R50_SHORT TOKYO_R30_DIR TOKYO_R30_LONG TOKYO_R30_SHORT TOKYO_LAND CMA_LAT CMA_LON CMA_CAT CMA_WIND CMA_PRES HKO_LAT HKO_LON HKO_CAT HKO_WIND HKO_PRES NEWDELHI_LAT NEWDELHI_LON NEWDELHI_GRADE NEWDELHI_WIND NEWDELHI_PRES NEWDELHI_CI NEWDELHI_DP NEWDELHI_POCI REUNION_LAT REUNION_LON REUNION_TYPE REUNION_WIND REUNION_PRES REUNION_TNUM REUNION_CI REUNION_RMW REUNION_R34_NE REUNION_R34_SE REUNION_R34_SW REUNION_R34_NW REUNION_R50_NE REUNION_R50_SE REUNION_R50_SW REUNION_R50_NW REUNION_R64_NE REUNION_R64_SE REUNION_R64_SW REUNION_R64_NW BOM_LAT BOM_LON BOM_TYPE BOM_WIND BOM_PRES BOM_TNUM BOM_CI BOM_RMW BOM_R34_NE BOM_R34_SE BOM_R34_SW BOM_R34_NW BOM_R50_NE BOM_R50_SE BOM_R50_SW BOM_R50_NW BOM_R64_NE BOM_R64_SE BOM_R64_SW BOM_R64_NW BOM_ROCI BOM_POCI BOM_EYE BOM_POS_METHOD BOM_PRES_METHOD NADI_LAT NADI_LON NADI_CAT NADI_WIND NADI_PRES WELLINGTON_LAT WELLINGTON_LON WELLINGTON_WIND WELLINGTON_PRES DS824_LAT DS824_LON DS824_STAGE DS824_WIND DS824_PRES TD9636_LAT TD9636_LON TD9636_STAGE TD9636_WIND TD9636_PRES TD9635_LAT TD9635_LON TD9635_WIND TD9635_PRES TD9635_ROCI NEUMANN_LAT NEUMANN_LON NEUMANN_CLASS NEUMANN_WIND NEUMANN_PRES MLC_LAT MLC_LON MLC_CLASS MLC_WIND MLC_PRES USA_GUST BOM_GUST BOM_GUST_PER REUNION_GUST REUNION_GUST_PER USA_SEAHGT USA_SEARAD_NE USA_SEARAD_SE USA_SEARAD_SW USA_SEARAD_NW STORM_SPEED STORM_DIR
1940267N12150 1940 69 WP MM NOT_NAMED 1940-09-22 12:00:00 NR 11.9000 150.000 main 1594 1537 __________O___ -1 11.9000 150.000 3 38 261
1940267N12150 1940 69 WP MM NOT_NAMED 1940-09-22 15:00:00 NR 11.5920 148.072 main 1536 1501 __________P___ -1 11.5920 148.072 3 37 261
1940267N12150 1940 69 WP MM NOT_NAMED 1940-09-22 18:00:00 NR 11.3203 146.276 main 1501 1492 __________P___ -1 11.3203 146.276 3 33 262
1940267N12150 1940 69 WP MM NOT_NAMED 1940-09-22 21:00:00 NR 11.1381 144.743 main 1493 1493 __________P___ -1 11.1381 144.743 3 26 265
1940267N12150 1940 69 WP MM NOT_NAMED 1940-09-23 00:00:00 NR 11.1000 143.600 main 1515 1515 __________O___ -1 11.1000 143.600 4 18 273
1940267N12150 1940 69 WP MM NOT_NAMED 1940-09-23 03:00:00 NR 11.2411 142.923 main 1525 1525 __________P___ -1 11.2411 142.923 4 11 293
1940267N12150 1940 69 WP MM NOT_NAMED 1940-09-23 06:00:00 NR 11.5161 142.593 main 1546 1546 __________P___ -1 11.5161 142.593 4 8 323
1940267N12150 1940 69 WP MM NOT_NAMED 1940-09-23 09:00:00 NR 11.8584 142.441 main 1582 1582 __________P___ -1 11.8584 142.441 4 7 337
1940267N12150 1940 69 WP MM NOT_NAMED 1940-09-23 12:00:00 NR 12.2000 142.300 main 1611 1611 __________O___ -1 12.2000 142.300 4 8 319
1940267N12150 1940 69 WP MM NOT_NAMED 1940-09-23 15:00:00 NR 12.4270 141.933 main 1620 1620 __________P___ -1 12.4270 141.933 4 9 301
1940267N12150 1940 69 WP MM NOT_NAMED 1940-09-23 18:00:00 NR 12.6422 141.544 main 1623 1623 __________P___ -1 12.6422 141.544 4 9 299
1940267N12150 1940 69 WP MM NOT_NAMED 1940-09-23 21:00:00 NR 12.8613 141.133 main 1638 1634 __________P___ -1 12.8613 141.133 4 9 299
1940267N12150 1940 69 WP MM NOT_NAMED 1940-09-24 00:00:00 NR 13.1000 140.700 main 1638 1597 __________O___ -1 13.1000 140.700 4 10 302
1940267N12150 1940 69 WP MM NOT_NAMED 1940-09-24 03:00:00 NR 13.3905 140.251 main 1599 1551 __________P___ -1 13.3905 140.251 4 11 304
1940267N12150 1940 69 WP MM NOT_NAMED 1940-09-24 06:00:00 NR 13.6998 139.780 main 1551 1504 __________P___ -1 13.6998 139.780 4 11 304
1940267N12150 1940 69 WP MM NOT_NAMED 1940-09-24 09:00:00 NR 14.0092 139.294 main 1504 1458 __________P___ -1 14.0092 139.294 4 11 302
1940267N12150 1940 69 WP MM NOT_NAMED 1940-09-24 12:00:00 NR 14.3000 138.800 main 1458 1410 __________O___ -1 14.3000 138.800 4 11 300
1940267N12150 1940 69 WP MM NOT_NAMED 1940-09-24 15:00:00 NR 14.5668 138.295 main 1410 1361 __________P___ -1 14.5668 138.295 4 11 297
1940267N12150 1940 69 WP MM NOT_NAMED 1940-09-24 18:00:00 NR 14.8099 137.785 main 1361 1313 __________P___ -1 14.8099 137.785 4 11 295
1940267N12150 1940 69 WP MM NOT_NAMED 1940-09-24 21:00:00 NR 15.0231 137.283 main 1313 1266 __________P___ -1 15.0231 137.283 4 10 292
1940267N12150 1940 69 WP MM NOT_NAMED 1940-09-25 00:00:00 NR 15.2000 136.800 main 1266 1227 __________O___ -1 15.2000 136.800 4 10 290
1940267N12150 1940 69 WP MM NOT_NAMED 1940-09-25 03:00:00 NR 15.3476 136.357 main 1227 1189 __________P___ -1 15.3476 136.357 4 9 287
1940267N12150 1940 69 WP MM NOT_NAMED 1940-09-25 06:00:00 NR 15.4593 135.935 main 1182 1141 __________P___ -1 15.4593 135.935 4 8 284
1940267N12150 1940 69 WP MM NOT_NAMED 1940-09-25 09:00:00 NR 15.5414 135.520 main 1141 1104 __________P___ -1 15.5414 135.520 4 8 280
1940267N12150 1940 69 WP MM NOT_NAMED 1940-09-25 12:00:00 NR 15.6000 135.100 main 1104 1063 __________O___ -1 15.6000 135.100 4 8 276
1940267N12150 1940 69 WP MM NOT_NAMED 1940-09-25 15:00:00 NR 15.6301 134.661 main 1063 1013 __________P___ -1 15.6301 134.661 4 9 273
1940267N12150 1940 69 WP MM NOT_NAMED 1940-09-25 18:00:00 NR 15.6421 134.214 main 1013 977 __________P___ -1 15.6421 134.214 4 9 272
1940267N12150 1940 69 WP MM NOT_NAMED 1940-09-25 21:00:00 NR 15.6581 133.761 main 977 928 __________P___ -1 15.6581 133.761 4 9 274
1940267N12150 1940 69 WP MM NOT_NAMED 1940-09-26 00:00:00 NR 15.7000 133.300 main 928 894 __________O___ -1 15.7000 133.300 4 9 278
1940267N12150 1940 69 WP MM NOT_NAMED 1940-09-26 03:00:00 NR 15.7798 132.828 main 884 851 __________P___ -1 15.7798 132.828 4 9 282
1940267N12150 1940 69 WP MM NOT_NAMED 1940-09-26 06:00:00 NR 15.8898 132.350 main 842 810 __________P___ -1 15.8898 132.350 4 10 285
1940267N12150 1940 69 WP MM NOT_NAMED 1940-09-26 09:00:00 NR 16.0298 131.872 main 810 777 __________P___ -1 16.0298 131.872 4 10 289
1940267N12150 1940 69 WP MM NOT_NAMED 1940-09-26 12:00:00 NR 16.2000 131.400 main 777 749 __________O___ -1 16.2000 131.400 4 10 292
1940267N12150 1940 69 WP MM NOT_NAMED 1940-09-26 15:00:00 NR 16.3960 130.935 main 748 720 __________P___ -1 16.3960 130.935 4 10 295
1940267N12150 1940 69 WP MM NOT_NAMED 1940-09-26 18:00:00 NR 16.6197 130.478 main 720 692 __________P___ -1 16.6197 130.478 4 10 298
1940267N12150 1940 69 WP MM NOT_NAMED 1940-09-26 21:00:00 NR 16.8585 130.032 main 687 662 __________P___ -1 16.8585 130.032 4 10 300
1940267N12150 1940 69 WP MM NOT_NAMED 1940-09-27 00:00:00 NR 17.1000 129.600 main 662 639 __________O___ -1 17.1000 129.600 4 9 299
1940267N12150 1940 69 WP MM NOT_NAMED 1940-09-27 03:00:00 NR 17.3166 129.177 main 639 619 __________P___ -1 17.3166 129.177 4 9 299
1940267N12150 1940 69 WP MM NOT_NAMED 1940-09-27 06:00:00 NR 17.5347 128.769 main 619 603 __________P___ -1 17.5347 128.769 4 9 300
1940267N12150 1940 69 WP MM NOT_NAMED 1940-09-27 09:00:00 NR 17.7604 128.377 main 610 593 __________P___ -1 17.7604 128.377 4 9 302
1940267N12150 1940 69 WP MM NOT_NAMED 1940-09-27 12:00:00 NR 18.0000 128.000 main 593 557 __________O___ -1 18.0000 128.000 4 9 305
1940267N12150 1940 69 WP MM NOT_NAMED 1940-09-27 15:00:00 NR 18.2563 127.627 main 559 527 __________P___ -1 18.2563 127.627 4 9 307
1940267N12150 1940 69 WP MM NOT_NAMED 1940-09-27 18:00:00 NR 18.5272 127.270 main 527 486 __________P___ -1 18.5272 127.270 4 9 310
1940267N12150 1940 69 WP MM NOT_NAMED 1940-09-27 21:00:00 NR 18.8095 126.927 main 486 459 __________P___ -1 18.8095 126.927 4 9 312
1940267N12150 1940 69 WP MM NOT_NAMED 1940-09-28 00:00:00 NR 19.1000 126.600 main 459 432 __________O___ -1 19.1000 126.600 4 8 315
1940267N12150 1940 69 WP MM NOT_NAMED 1940-09-28 03:00:00 NR 19.3965 126.297 main 435 415 __________P___ -1 19.3965 126.297 4 8 317
1940267N12150 1940 69 WP MM NOT_NAMED 1940-09-28 06:00:00 NR 19.6994 126.007 main 415 399 __________P___ -1 19.6994 126.007 4 8 318
1940267N12150 1940 69 WP MM NOT_NAMED 1940-09-28 09:00:00 NR 20.0027 125.713 main 399 388 __________P___ -1 20.0027 125.713 4 8 316
1940267N12150 1940 69 WP MM NOT_NAMED 1940-09-28 12:00:00 NR 20.3000 125.400 main 388 375 __________O___ -1 20.3000 125.400 4 9 315
1940267N12150 1940 69 WP MM NOT_NAMED 1940-09-28 15:00:00 NR 20.6103 125.063 main 382 374 __________P___ -1 20.6103 125.063 4 9 313
1940267N12150 1940 69 WP MM NOT_NAMED 1940-09-28 18:00:00 NR 20.9095 124.703 main 375 360 __________P___ -1 20.9095 124.703 4 9 309
1940267N12150 1940 69 WP MM NOT_NAMED 1940-09-28 21:00:00 NR 21.1789 124.316 main 360 314 __________P___ -1 21.1789 124.316 4 9 303
1940267N12150 1940 69 WP MM NOT_NAMED 1940-09-29 00:00:00 NR 21.4000 123.900 main 314 272 __________O___ -1 21.4000 123.900 4 9 295
1940267N12150 1940 69 WP MM NOT_NAMED 1940-09-29 03:00:00 NR 21.5420 123.461 main 272 219 __________P___ -1 21.5420 123.461 4 9 286
1940267N12150 1940 69 WP MM NOT_NAMED 1940-09-29 06:00:00 NR 21.6372 122.994 main 219 166 __________P___ -1 21.6372 122.994 4 9 281
1940267N12150 1940 69 WP MM NOT_NAMED 1940-09-29 09:00:00 NR 21.7137 122.505 main 166 114 __________P___ -1 21.7137 122.505 4 9 280
1940267N12150 1940 69 WP MM NOT_NAMED 1940-09-29 12:00:00 NR 21.8000 122.000 main 114 61 __________O___ -1 21.8000 122.000 4 10 282
1940267N12150 1940 69 WP MM NOT_NAMED 1940-09-29 15:00:00 NR 21.9156 121.461 main 61 0 __________P___ -1 21.9156 121.461 4 10 284
1940267N12150 1940 69 WP MM NOT_NAMED 1940-09-29 18:00:00 NR 22.0480 120.912 main 0 0 __________P___ -1 22.0480 120.912 4 10 286
1940267N12150 1940 69 WP MM NOT_NAMED 1940-09-29 21:00:00 NR 22.2063 120.383 main 23 23 __________P___ -1 22.2063 120.383 4 10 291
1940267N12150 1940 69 WP MM NOT_NAMED 1940-09-30 00:00:00 NR 22.4000 119.900 main 42 42 __________O___ -1 22.4000 119.900 4 9 296
1940267N12150 1940 69 WP MM NOT_NAMED 1940-09-30 03:00:00 NR 22.6141 119.475 main 75 75 __________P___ -1 22.6141 119.475 4 9 302
1940267N12150 1940 69 WP MM NOT_NAMED 1940-09-30 06:00:00 NR 22.8669 119.102 main 104 104 __________P___ -1 22.8669 119.102 4 8 310
1940267N12150 1940 69 WP MM NOT_NAMED 1940-09-30 09:00:00 NR 23.1612 118.778 main 128 82 __________P___ -1 23.1612 118.778 4 8 319
1940267N12150 1940 69 WP MM NOT_NAMED 1940-09-30 12:00:00 NR 23.5000 118.500 main 82 32 __________O___ -1 23.5000 118.500 4 9 322
1940267N12150 1940 69 WP MM NOT_NAMED 1940-09-30 15:00:00 NR 23.8774 118.157 main 32 0 __________P___ -1 23.8774 118.157 4 10 324
1940267N12150 1940 69 WP MM NOT_NAMED 1940-09-30 18:00:00 NR 24.2968 117.871 main 0 0 __________P___ -1 24.2968 117.871 4 10 334
1940267N12150 1940 69 WP MM NOT_NAMED 1940-09-30 21:00:00 NR 24.7427 117.699 main 0 0 __________P___ -1 24.7427 117.699 4 9 350
1940267N12150 1940 69 WP MM NOT_NAMED 1940-10-01 00:00:00 NR 25.2000 117.700 main 0 0 __________O___ -1 25.2000 117.700 4 10 11
1940267N12150 1940 69 WP MM NOT_NAMED 1940-10-01 03:00:00 NR 25.6750 117.906 main 0 0 __________P___ -1 25.6750 117.906 4 11 29
1940267N12150 1940 69 WP MM NOT_NAMED 1940-10-01 06:00:00 NR 26.1521 118.292 main 0 0 __________P___ -1 26.1521 118.292 4 12 41
1940267N12150 1940 69 WP MM NOT_NAMED 1940-10-01 09:00:00 NR 26.6031 118.807 main 0 0 __________P___ -1 26.6031 118.807 4 13 49
1940267N12150 1940 69 WP MM NOT_NAMED 1940-10-01 12:00:00 NR 27.0000 119.400 main 0 0 __________O___ -1 27.0000 119.400 4 13 56
1940267N12150 1940 69 WP MM NOT_NAMED 1940-10-01 15:00:00 NR 27.3234 120.027 main 0 0 __________P___ -1 27.3234 120.027 4 13 63
1940267N12150 1940 69 WP MM NOT_NAMED 1940-10-01 18:00:00 NR 27.5848 120.673 main 0 0 __________P___ -1 27.5848 120.673 4 13 67
1940267N12150 1940 69 WP MM NOT_NAMED 1940-10-01 21:00:00 NR 27.8039 121.333 main 33 29 __________P___ -1 27.8039 121.333 4 12 71
1940267N12150 1940 69 WP MM NOT_NAMED 1940-10-02 00:00:00 NR 28.0000 122.000 main 51 __________O___ -1 28.0000 122.000 4 12 72

デジタル台風データ・検索

IBTrACS Databaseについて

本データベースは、米国NOAAが公開する1842年以降の世界の熱帯低気圧のベストトラックデータアーカイブInternational Best Track Archive for Climate Stewardship (IBTrACS)を、ウェブで閲覧しやすい形式に変換したものです。

最終更新日:2021-10-08